Time;durP1;ratioP1;P1;durP2;ratioP2;P2;SDS_P1;SDS_P2;PMS_P1;PMS_P2;Temp;Humidity;BMP_temperature;BMP_pressure;BME280_temperature;BME280_humidity;BME280_pressure;Samples;Min_cycle;Max_cycle;Signal;HPM_P1;HPM_P2
2021/05/17 00:04:02;;;;;;;1.40;0.30;;;10.10;99.90;;;;;;10415288;28;20098;-45
2021/05/17 00:09:04;;;;;;;2.17;0.40;;;10.10;99.90;;;;;;10413223;28;20025;-46
2021/05/17 00:14:05;;;;;;;1.15;0.30;;;10.10;99.90;;;;;;10413070;28;20567;-46
2021/05/17 00:19:06;;;;;;;2.17;0.50;;;10.00;99.90;;;;;;10416034;28;20032;-45
2021/05/17 00:24:08;;;;;;;1.00;0.30;;;10.00;99.90;;;;;;10405726;28;20476;-46
2021/05/17 00:29:10;;;;;;;0.55;0.13;;;9.90;99.90;;;;;;10412473;28;20451;-46
2021/05/17 00:34:11;;;;;;;2.03;0.20;;;10.00;99.90;;;;;;10394357;28;20660;-46
2021/05/17 00:39:13;;;;;;;0.20;0.10;;;10.00;99.90;;;;;;10410210;28;20496;-46
2021/05/17 00:44:14;;;;;;;0.10;0.00;;;10.00;99.90;;;;;;10413206;28;20756;-46
2021/05/17 00:49:14;;;;;;;0.43;0.10;;;10.00;99.90;;;;;;10393563;28;20265;-46
2021/05/17 00:54:15;;;;;;;0.22;0.00;;;10.00;99.90;;;;;;10411525;28;20060;-46
2021/05/17 00:59:17;;;;;;;0.35;0.10;;;10.00;99.90;;;;;;10413998;28;20569;-46
2021/05/17 01:04:18;;;;;;;0.55;0.13;;;10.00;99.90;;;;;;10410075;28;20052;-46
2021/05/17 01:09:20;;;;;;;0.55;0.10;;;10.00;99.90;;;;;;10403751;28;20451;-46
2021/05/17 01:14:20;;;;;;;0.20;0.08;;;10.00;99.90;;;;;;10406969;28;20489;-46
2021/05/17 01:19:40;;;;;;;0.20;0.13;;;10.00;99.90;;;;;;10413058;28;20041;-46
2021/05/17 01:24:42;;;;;;;0.88;0.40;;;10.00;99.90;;;;;;10406872;28;20431;-45
2021/05/17 01:29:43;;;;;;;2.60;0.47;;;10.00;99.90;;;;;;10415295;28;20029;-46
2021/05/17 01:34:44;;;;;;;1.17;0.40;;;10.00;99.90;;;;;;10390209;28;20377;-45
2021/05/17 01:39:46;;;;;;;1.60;0.20;;;10.00;99.90;;;;;;10405862;28;20502;-45
2021/05/17 01:44:48;;;;;;;1.02;0.25;;;10.10;99.90;;;;;;10409427;28;20550;-45
2021/05/17 01:49:51;;;;;;;5.05;0.80;;;10.10;99.90;;;;;;10414601;28;20163;-46
2021/05/17 01:54:54;;;;;;;1.98;0.63;;;10.00;99.90;;;;;;10408893;28;20043;-45
2021/05/17 01:59:55;;;;;;;1.90;0.65;;;10.00;99.90;;;;;;10410829;28;20883;-46
2021/05/17 02:04:56;;;;;;;2.53;1.10;;;10.00;99.90;;;;;;10408424;28;20060;-45
2021/05/17 02:09:59;;;;;;;2.47;1.25;;;10.00;99.90;;;;;;10410238;28;20329;-46
2021/05/17 02:15:00;;;;;;;2.33;0.90;;;10.10;99.90;;;;;;10409388;28;20040;-46
2021/05/17 02:20:02;;;;;;;3.10;1.20;;;10.10;99.90;;;;;;10411522;28;20044;-46
2021/05/17 02:25:03;;;;;;;4.13;1.45;;;10.00;99.90;;;;;;10406160;28;20049;-45
2021/05/17 02:30:05;;;;;;;5.97;1.73;;;10.10;99.90;;;;;;10405887;28;21130;-45
2021/05/17 02:35:06;;;;;;;2.53;1.10;;;10.10;99.90;;;;;;10407209;28;20041;-46
2021/05/17 02:40:08;;;;;;;4.35;1.75;;;10.10;99.90;;;;;;10404349;28;20308;-46
2021/05/17 02:45:09;;;;;;;4.85;1.60;;;10.20;99.90;;;;;;10408615;28;20480;-45
2021/05/17 02:50:14;;;;;;;4.97;1.48;;;10.10;99.90;;;;;;10411279;28;20103;-45
2021/05/17 02:55:15;;;;;;;5.43;1.58;;;10.10;99.90;;;;;;10406134;28;20392;-45
2021/05/17 03:00:20;;;;;;;3.70;1.77;;;10.20;99.90;;;;;;10406598;28;20515;-46
2021/05/17 03:05:21;;;;;;;3.83;1.30;;;10.20;99.90;;;;;;10403675;28;20404;-46
2021/05/17 03:10:24;;;;;;;6.22;1.65;;;10.10;99.90;;;;;;10407638;28;21175;-46
2021/05/17 03:15:27;;;;;;;3.53;1.58;;;10.10;99.90;;;;;;10408567;28;20313;-46
2021/05/17 03:20:28;;;;;;;3.40;1.38;;;10.20;99.90;;;;;;10416882;28;20255;-45
2021/05/17 03:25:33;;;;;;;4.70;1.98;;;10.20;99.90;;;;;;10411176;28;20080;-46
2021/05/17 03:30:34;;;;;;;5.32;2.42;;;10.20;99.90;;;;;;10410874;28;20076;-46
2021/05/17 03:35:35;;;;;;;5.63;2.15;;;10.20;99.90;;;;;;10415279;28;20090;-46
2021/05/17 03:40:35;;;;;;;4.85;2.47;;;10.20;99.90;;;;;;10411653;28;20044;-45
2021/05/17 03:45:36;;;;;;;4.65;2.15;;;10.30;99.90;;;;;;10403371;28;20098;-46
2021/05/17 03:50:37;;;;;;;3.90;1.73;;;10.30;99.90;;;;;;10411450;28;20419;-46
2021/05/17 03:55:38;;;;;;;3.78;1.92;;;10.30;99.90;;;;;;10413057;28;20118;-46
2021/05/17 04:00:39;;;;;;;4.53;1.80;;;10.40;99.90;;;;;;10415363;28;20280;-46
2021/05/17 04:15:59;;;;;;;;;;;10.40;99.90;;;;;;10402345;28;20372;-46
2021/05/17 04:21:00;;;;;;;5.25;1.77;;;10.40;99.90;;;;;;10397118;28;19925;-46
2021/05/17 04:26:01;;;;;;;4.18;1.48;;;10.40;99.90;;;;;;10410830;28;20060;-46
2021/05/17 04:31:02;;;;;;;4.68;1.83;;;10.40;99.90;;;;;;10411326;28;20056;-45
2021/05/17 04:36:03;;;;;;;3.80;1.90;;;10.40;99.90;;;;;;10402120;28;20041;-46
2021/05/17 04:41:04;;;;;;;4.88;1.95;;;10.50;99.90;;;;;;10403030;28;20049;-46
2021/05/17 04:46:05;;;;;;;2.80;0.98;;;10.50;99.90;;;;;;10406379;28;20048;-46
2021/05/17 04:51:05;;;;;;;2.88;1.48;;;10.40;99.90;;;;;;10412131;28;20035;-46
2021/05/17 04:56:06;;;;;;;4.60;1.30;;;10.40;99.90;;;;;;10411023;28;20071;-46
2021/05/17 05:01:07;;;;;;;4.45;1.88;;;10.40;99.90;;;;;;10394390;28;20040;-46
2021/05/17 05:06:08;;;;;;;6.53;1.55;;;10.50;99.90;;;;;;10411138;28;20424;-46
2021/05/17 05:11:08;;;;;;;8.30;2.50;;;10.50;99.90;;;;;;10411376;28;20374;-46
2021/05/17 05:16:09;;;;;;;3.65;1.67;;;10.50;99.90;;;;;;10405324;28;20033;-46
2021/05/17 05:21:10;;;;;;;5.75;2.17;;;10.50;99.90;;;;;;10387254;28;20045;-48
2021/05/17 05:26:23;;;;;;;3.88;1.67;;;10.50;99.90;;;;;;10408348;28;20487;-48
2021/05/17 05:31:31;;;;;;;4.90;1.60;;;10.60;99.90;;;;;;10412961;28;20116;-46
2021/05/17 05:36:32;;;;;;;5.80;2.15;;;10.60;99.90;;;;;;10411842;28;20094;-45
2021/05/17 05:41:33;;;;;;;4.15;1.63;;;10.70;99.90;;;;;;10390261;28;20045;-46
2021/05/17 05:46:34;;;;;;;8.38;2.70;;;10.60;99.90;;;;;;10377172;28;20060;-46
2021/05/17 05:51:34;;;;;;;5.10;1.77;;;10.70;99.90;;;;;;10384248;28;20032;-46
2021/05/17 05:56:35;;;;;;;3.63;1.40;;;10.80;99.90;;;;;;10412566;28;20395;-46
2021/05/17 06:01:36;;;;;;;3.65;1.40;;;10.80;99.90;;;;;;10223306;28;20056;-45
2021/05/17 06:06:37;;;;;;;4.28;1.98;;;10.80;99.90;;;;;;10117947;28;20048;-45
2021/05/17 06:11:38;;;;;;;4.68;2.58;;;10.80;99.90;;;;;;10122432;28;20033;-46
2021/05/17 06:16:39;;;;;;;5.03;2.38;;;10.90;99.90;;;;;;10154898;28;20184;-47
2021/05/17 06:21:40;;;;;;;6.25;1.58;;;11.00;99.90;;;;;;10117468;28;20134;-46
2021/05/17 06:26:41;;;;;;;3.80;1.40;;;11.10;99.90;;;;;;10089328;28;20045;-47
2021/05/17 06:31:46;;;;;;;5.32;1.90;;;11.10;99.90;;;;;;10125158;28;20037;-47
2021/05/17 06:36:46;;;;;;;7.03;2.45;;;11.20;99.90;;;;;;10127656;28;20136;-47
2021/05/17 06:41:47;;;;;;;4.88;1.63;;;11.30;99.90;;;;;;10120009;28;20474;-47
2021/05/17 06:46:48;;;;;;;5.93;2.35;;;11.30;99.90;;;;;;10125574;28;20418;-46
2021/05/17 06:51:49;;;;;;;5.57;2.00;;;11.50;99.90;;;;;;10135824;28;21444;-47
2021/05/17 06:56:59;;;;;;;5.78;2.50;;;11.40;99.90;;;;;;10139458;28;22394;-47
2021/05/17 07:02:01;;;;;;;5.05;2.58;;;11.30;99.90;;;;;;10118752;28;20462;-47
2021/05/17 07:18:37;;;;;;;5.30;2.25;;;11.30;99.90;;;;;;2181692;22;20149;-86
2021/05/17 07:23:39;;;;;;;5.30;2.17;;;11.30;99.90;;;;;;10365161;28;20076;-86
2021/05/17 07:28:40;;;;;;;5.10;2.28;;;11.30;99.90;;;;;;10373479;28;20329;-87
2021/05/17 07:33:41;;;;;;;6.03;2.40;;;11.40;99.90;;;;;;10372074;28;20092;-88
2021/05/17 07:38:43;;;;;;;6.20;2.95;;;11.50;99.90;;;;;;10355628;28;20064;-85
2021/05/17 07:43:44;;;;;;;6.65;2.33;;;11.50;99.90;;;;;;10369136;28;20396;-86
2021/05/17 07:49:11;;;;;;;5.97;2.03;;;11.50;99.90;;;;;;10363227;28;20095;-84
2021/05/17 07:54:14;;;;;;;5.45;2.78;;;11.60;99.90;;;;;;10361094;28;20051;-86
2021/05/17 07:59:15;;;;;;;8.23;2.50;;;11.70;99.90;;;;;;10349643;28;20049;-86
2021/05/17 08:04:16;;;;;;;8.13;3.00;;;11.60;99.90;;;;;;10365816;28;20041;-85
2021/05/17 08:09:17;;;;;;;6.40;2.78;;;11.60;99.90;;;;;;10263614;28;20243;-86
2021/05/17 08:14:18;;;;;;;6.25;2.90;;;11.80;99.90;;;;;;10245059;28;20298;-87
2021/05/17 08:19:19;;;;;;;7.15;2.83;;;11.90;99.90;;;;;;10229466;28;20053;-86
2021/05/17 08:24:20;;;;;;;6.22;2.10;;;11.90;99.90;;;;;;10253892;28;20043;-84
2021/05/17 08:29:22;;;;;;;6.55;2.78;;;12.10;99.90;;;;;;10263241;28;20338;-86
2021/05/17 08:34:23;;;;;;;5.22;2.45;;;12.00;99.90;;;;;;10225392;28;20076;-85
2021/05/17 08:39:24;;;;;;;4.72;2.40;;;11.90;99.90;;;;;;10236531;28;20045;-86
2021/05/17 08:44:26;;;;;;;5.43;2.17;;;12.00;99.90;;;;;;10258884;28;20373;-84
2021/05/17 08:49:27;;;;;;;5.65;2.78;;;12.10;99.90;;;;;;10242557;28;20100;-83
2021/05/17 08:54:29;;;;;;;6.15;2.30;;;12.40;99.90;;;;;;10336967;28;20061;-85
2021/05/17 08:59:31;;;;;;;5.97;2.63;;;12.80;99.90;;;;;;10258911;28;20041;-84
2021/05/17 09:04:31;;;;;;;4.38;2.00;;;13.00;99.90;;;;;;10240681;28;20367;-83
2021/05/17 09:09:35;;;;;;;6.57;2.03;;;13.30;99.90;;;;;;10280677;28;20086;-86
2021/05/17 09:14:37;;;;;;;2.97;1.67;;;13.30;99.90;;;;;;10321524;28;20072;-83
2021/05/17 09:19:41;;;;;;;8.02;1.52;;;13.30;99.90;;;;;;10291259;28;20136;-82
2021/05/17 09:24:57;;;;;;;2.70;1.48;;;13.40;99.90;;;;;;10280798;28;20094;-82
2021/05/17 09:30:03;;;;;;;4.10;1.92;;;13.20;99.90;;;;;;10305012;28;20048;-83
2021/05/17 09:35:05;;;;;;;6.03;1.88;;;13.50;99.90;;;;;;10262174;28;20048;-84
2021/05/17 09:40:17;;;;;;;2.80;1.48;;;13.70;99.90;;;;;;10276365;28;20607;-82
2021/05/17 09:45:18;;;;;;;3.25;1.70;;;13.90;99.90;;;;;;10284491;28;20091;-82
2021/05/17 09:50:18;;;;;;;3.08;1.50;;;14.20;99.90;;;;;;10295248;28;20520;-82
2021/05/17 09:55:19;;;;;;;4.15;1.30;;;14.20;99.90;;;;;;10291253;28;20426;-84
2021/05/17 10:00:29;;;;;;;3.22;1.38;;;14.50;99.90;;;;;;10249262;28;20056;-84
2021/05/17 10:05:33;;;;;;;1.83;0.88;;;14.50;99.90;;;;;;10285427;28;20126;-83
2021/05/17 10:10:34;;;;;;;2.42;0.90;;;14.60;99.90;;;;;;10271716;28;20041;-82
2021/05/17 10:15:36;;;;;;;2.20;0.98;;;14.50;99.90;;;;;;10271827;28;20082;-82
2021/05/17 10:20:37;;;;;;;3.75;0.88;;;14.40;99.90;;;;;;10307073;28;20047;-82
2021/05/17 10:25:38;;;;;;;1.60;0.60;;;14.10;99.90;;;;;;10299546;28;20033;-83
2021/05/17 10:30:40;;;;;;;4.32;0.60;;;14.20;99.90;;;;;;10315687;28;20041;-82
2021/05/17 10:35:40;;;;;;;1.02;0.60;;;14.00;99.90;;;;;;10256219;28;20038;-84
2021/05/17 10:40:42;;;;;;;1.15;0.40;;;13.90;99.90;;;;;;10273937;28;20052;-85
2021/05/17 10:51:17;;;;;;;1.90;0.88;;;12.90;99.90;;;;;;10308593;28;20033;-84
2021/05/17 10:56:52;;;;;;;0.70;0.25;;;12.50;99.90;;;;;;10324827;28;20037;-83
2021/05/17 11:01:56;;;;;;;1.55;0.38;;;12.30;99.90;;;;;;10311772;28;20196;-84
2021/05/17 11:07:26;;;;;;;1.45;0.73;;;12.30;99.90;;;;;;10313881;28;20044;-85
2021/05/17 11:12:26;;;;;;;1.23;0.40;;;12.20;99.90;;;;;;10317717;28;20507;-85
2021/05/17 11:17:27;;;;;;;4.40;2.83;;;12.20;99.90;;;;;;10281571;28;20322;-84
2021/05/17 11:23:26;;;;;;;2.53;0.90;;;12.20;99.90;;;;;;10313963;28;20160;-84
2021/05/17 11:28:40;;;;;;;2.20;0.70;;;12.30;99.90;;;;;;10207669;28;20052;-86
2021/05/17 11:33:57;;;;;;;1.73;0.43;;;12.80;99.90;;;;;;10336557;28;20045;-84
2021/05/17 11:39:03;;;;;;;1.58;0.70;;;13.30;99.90;;;;;;10330653;28;20060;-84
2021/05/17 11:44:08;;;;;;;2.50;0.90;;;14.00;99.90;;;;;;10323659;28;20074;-84
2021/05/17 11:49:13;;;;;;;1.30;0.70;;;14.40;99.90;;;;;;10322959;28;20075;-84
2021/05/17 11:54:15;;;;;;;1.85;0.65;;;14.30;99.90;;;;;;10340394;28;20041;-84
2021/05/17 11:59:19;;;;;;;0.52;0.30;;;14.20;99.90;;;;;;10311901;28;20069;-84
2021/05/17 12:04:46;;;;;;;1.95;0.50;;;14.60;99.90;;;;;;10266551;28;20060;-84
2021/05/17 12:09:52;;;;;;;2.22;0.73;;;15.10;99.90;;;;;;10271927;28;20151;-85
2021/05/17 12:14:55;;;;;;;5.30;2.55;;;15.50;99.90;;;;;;10281852;28;21081;-84
2021/05/17 12:19:58;;;;;;;8.38;3.05;;;14.90;99.90;;;;;;10274222;28;20365;-85
2021/05/17 12:25:01;;;;;;;7.57;3.17;;;14.10;99.90;;;;;;10236720;28;20550;-86
2021/05/17 12:30:06;;;;;;;11.52;3.60;;;13.50;99.90;;;;;;10224198;28;20038;-87
2021/05/17 12:35:11;;;;;;;7.00;3.58;;;13.10;99.90;;;;;;10249120;28;20045;-87
2021/05/17 12:40:31;;;;;;;7.82;3.75;;;12.90;99.90;;;;;;10233075;28;20099;-87
2021/05/17 12:45:34;;;;;;;5.97;2.72;;;13.20;99.90;;;;;;10214829;28;20053;-86
2021/05/17 12:50:35;;;;;;;4.32;1.88;;;13.50;99.90;;;;;;10213972;28;20748;-85
2021/05/17 12:55:51;;;;;;;3.70;1.30;;;14.00;99.90;;;;;;10211391;28;20042;-86
2021/05/17 13:00:53;;;;;;;3.10;0.95;;;14.50;99.90;;;;;;10217313;28;22308;-85
2021/05/17 13:06:00;;;;;;;5.05;2.17;;;15.00;99.90;;;;;;10232094;28;20520;-85
2021/05/17 13:11:05;;;;;;;2.65;0.90;;;14.90;99.90;;;;;;10244159;28;20055;-85
2021/05/17 13:16:06;;;;;;;2.38;0.75;;;14.70;99.90;;;;;;10222543;28;20338;-85
2021/05/17 13:21:15;;;;;;;2.30;0.63;;;14.50;99.90;;;;;;10243011;28;20049;-84
2021/05/17 13:31:44;;;;;;;2.85;1.15;;;14.90;99.90;;;;;;10317775;28;20578;-83
2021/05/17 13:36:45;;;;;;;1.70;0.60;;;14.80;99.90;;;;;;10327171;28;20737;-83
2021/05/17 13:41:45;;;;;;;1.92;0.80;;;14.70;99.90;;;;;;10293571;28;20036;-86
2021/05/17 13:46:46;;;;;;;1.95;0.77;;;15.00;99.90;;;;;;10291948;28;20046;-84
2021/05/17 13:51:47;;;;;;;1.70;0.65;;;15.70;99.90;;;;;;10320590;28;20047;-84
2021/05/17 13:56:48;;;;;;;3.03;1.25;;;15.70;99.90;;;;;;10298127;28;20282;-85
2021/05/17 14:01:48;;;;;;;1.35;0.60;;;15.30;99.90;;;;;;10261194;28;20553;-84
2021/05/17 14:06:49;;;;;;;1.85;0.75;;;14.70;99.90;;;;;;10319849;28;20063;-83
2021/05/17 14:11:51;;;;;;;0.50;0.32;;;14.50;99.90;;;;;;10253289;28;20041;-84
2021/05/17 14:16:56;;;;;;;0.63;0.30;;;14.40;99.90;;;;;;10282354;28;20758;-84
2021/05/17 14:21:58;;;;;;;1.67;0.47;;;14.30;99.90;;;;;;10275707;28;20119;-84
2021/05/17 14:26:59;;;;;;;1.42;0.65;;;14.30;99.90;;;;;;10226120;28;20167;-85
2021/05/17 14:32:01;;;;;;;2.33;0.40;;;14.60;99.90;;;;;;10316804;28;20045;-82
2021/05/17 14:37:05;;;;;;;1.27;0.38;;;14.30;99.90;;;;;;10287850;28;20039;-82
2021/05/17 14:42:06;;;;;;;2.10;0.30;;;14.20;99.90;;;;;;10284937;28;20048;-82
2021/05/17 14:47:07;;;;;;;0.80;0.35;;;14.40;99.90;;;;;;10270871;28;20046;-83
2021/05/17 14:52:08;;;;;;;0.70;0.30;;;14.80;99.90;;;;;;10277800;28;20095;-84
2021/05/17 14:57:09;;;;;;;1.40;0.43;;;14.80;99.90;;;;;;10273902;28;20045;-84
2021/05/17 15:02:10;;;;;;;2.40;0.93;;;14.60;99.90;;;;;;10252374;28;20619;-87
2021/05/17 15:07:10;;;;;;;0.60;0.20;;;14.60;99.90;;;;;;10271628;28;20036;-85
2021/05/17 15:12:11;;;;;;;0.85;0.25;;;14.60;99.90;;;;;;10244431;28;20044;-85
2021/05/17 15:17:12;;;;;;;0.63;0.30;;;15.10;99.90;;;;;;10234724;28;20037;-85
2021/05/17 15:22:13;;;;;;;2.90;0.85;;;15.20;99.90;;;;;;10212149;28;20053;-86
2021/05/17 15:27:14;;;;;;;1.42;0.40;;;14.90;99.90;;;;;;10216310;28;20582;-85
2021/05/17 15:32:15;;;;;;;0.75;0.43;;;14.50;99.90;;;;;;10304289;28;20677;-85
2021/05/17 15:37:16;;;;;;;2.65;1.13;;;14.20;99.90;;;;;;10255440;28;20037;-86
2021/05/17 15:42:18;;;;;;;2.20;1.02;;;14.20;99.90;;;;;;10199228;28;20741;-84
2021/05/17 15:47:18;;;;;;;4.78;1.50;;;14.10;99.90;;;;;;10203060;28;20415;-83
2021/05/17 15:52:19;;;;;;;6.07;1.20;;;14.40;99.90;;;;;;10229073;28;20381;-83
2021/05/17 15:57:20;;;;;;;2.88;0.70;;;14.40;99.90;;;;;;10258693;28;20041;-84
2021/05/17 16:02:22;;;;;;;2.72;1.33;;;14.40;99.90;;;;;;10218919;28;20512;-85
2021/05/17 16:07:22;;;;;;;5.07;1.33;;;14.40;99.90;;;;;;10250739;28;20295;-83
2021/05/17 16:12:28;;;;;;;1.58;0.68;;;14.50;99.90;;;;;;10247826;28;20419;-84
2021/05/17 16:22:48;;;;;;;15.98;1.60;;;14.50;99.90;;;;;;10329682;28;20411;-82
2021/05/17 16:27:49;;;;;;;2.25;0.93;;;14.30;99.90;;;;;;10389141;28;20063;-84
2021/05/17 16:32:49;;;;;;;7.85;1.30;;;14.50;99.90;;;;;;10361856;28;20205;-82
2021/05/17 16:37:50;;;;;;;2.83;0.80;;;14.40;99.90;;;;;;10376828;28;20041;-84
2021/05/17 16:42:51;;;;;;;5.38;1.90;;;14.20;99.90;;;;;;10387096;28;21169;-84
2021/05/17 16:47:52;;;;;;;4.00;0.57;;;14.00;99.90;;;;;;10355312;28;20393;-82
2021/05/17 16:52:53;;;;;;;5.90;1.45;;;14.10;99.90;;;;;;10375363;28;20770;-81
2021/05/17 16:57:53;;;;;;;2.15;0.85;;;14.10;99.90;;;;;;10396409;28;20049;-82
2021/05/17 17:02:54;;;;;;;8.45;1.10;;;13.90;99.90;;;;;;10394357;28;20424;-81
2021/05/17 17:08:03;;;;;;;4.28;1.02;;;13.90;99.90;;;;;;10360904;28;20610;-82
2021/05/17 17:13:04;;;;;;;5.60;0.73;;;13.80;99.90;;;;;;10356536;28;20045;-83
2021/05/17 17:18:04;;;;;;;10.82;1.83;;;13.70;99.90;;;;;;10366103;28;20547;-82
2021/05/17 17:23:05;;;;;;;1.42;0.52;;;13.60;99.90;;;;;;10343891;28;20576;-83
2021/05/17 17:28:06;;;;;;;2.78;1.05;;;13.50;99.90;;;;;;10335836;28;20056;-82
2021/05/17 17:33:07;;;;;;;4.15;0.73;;;13.30;99.90;;;;;;10339730;28;20053;-84
2021/05/17 17:38:07;;;;;;;4.35;1.08;;;13.10;99.90;;;;;;10338943;28;20038;-82
2021/05/17 17:43:08;;;;;;;2.90;1.38;;;13.00;99.90;;;;;;10329164;28;20491;-83
2021/05/17 17:48:09;;;;;;;1.92;0.95;;;13.00;99.90;;;;;;10336193;28;20041;-82
2021/05/17 17:53:10;;;;;;;2.88;0.90;;;12.90;99.90;;;;;;10368936;28;20033;-83
2021/05/17 17:58:11;;;;;;;3.58;0.88;;;12.80;99.90;;;;;;10341069;28;20037;-83
2021/05/17 18:03:11;;;;;;;1.55;0.60;;;12.60;99.90;;;;;;10294102;28;20041;-83
2021/05/17 18:08:13;;;;;;;2.17;0.82;;;12.60;99.90;;;;;;10325692;28;20519;-83
2021/05/17 18:13:15;;;;;;;1.27;0.85;;;12.60;99.90;;;;;;10321312;28;20037;-83
2021/05/17 18:18:16;;;;;;;6.22;1.98;;;12.30;99.90;;;;;;10347994;28;20049;-83
2021/05/17 18:23:17;;;;;;;2.20;0.80;;;12.30;99.90;;;;;;10332077;28;20194;-82
2021/05/17 18:28:18;;;;;;;2.30;0.68;;;12.30;99.90;;;;;;10341613;28;20048;-83
2021/05/17 18:33:31;;;;;;;3.38;1.50;;;12.30;99.90;;;;;;10339169;28;20124;-82
2021/05/17 18:38:33;;;;;;;3.55;0.70;;;12.20;99.90;;;;;;10335607;28;20120;-83
2021/05/17 18:48:59;;;;;;;2.17;1.02;;;12.00;99.90;;;;;;10336304;28;20087;-82
2021/05/17 18:54:03;;;;;;;4.57;1.02;;;12.00;99.90;;;;;;10319189;28;20152;-83
2021/05/17 18:59:06;;;;;;;2.50;0.90;;;12.10;99.90;;;;;;10353323;28;20125;-84
2021/05/17 19:04:09;;;;;;;3.70;0.68;;;12.10;99.90;;;;;;10353005;28;20044;-84
2021/05/17 19:09:11;;;;;;;8.75;1.33;;;12.10;99.90;;;;;;10340000;28;20037;-82
2021/05/17 19:14:11;;;;;;;2.05;0.80;;;11.90;99.90;;;;;;10336529;28;20052;-81
2021/05/17 19:19:12;;;;;;;4.88;2.28;;;12.00;99.90;;;;;;10356064;28;20052;-83
2021/05/17 19:24:14;;;;;;;7.07;1.48;;;11.90;99.90;;;;;;10345490;28;20037;-82
2021/05/17 19:29:16;;;;;;;3.97;1.75;;;11.70;99.90;;;;;;10320663;28;20045;-84
2021/05/17 19:34:16;;;;;;;5.60;1.25;;;11.70;99.90;;;;;;10333962;28;20143;-82
2021/05/17 19:39:17;;;;;;;2.03;0.60;;;11.70;99.90;;;;;;10337141;28;20408;-82
2021/05/17 19:44:18;;;;;;;3.95;1.42;;;11.70;99.90;;;;;;10349906;28;20042;-83
2021/05/17 19:49:19;;;;;;;3.72;0.90;;;11.50;99.90;;;;;;10328376;28;20037;-83
2021/05/17 19:54:21;;;;;;;2.10;0.85;;;11.50;99.90;;;;;;10316911;28;20038;-82
2021/05/17 19:59:22;;;;;;;6.18;1.27;;;11.40;99.90;;;;;;10357514;28;20497;-83
2021/05/17 20:04:23;;;;;;;16.02;2.05;;;11.40;99.90;;;;;;10343586;28;20048;-82
2021/05/17 20:09:23;;;;;;;3.97;1.60;;;11.40;99.90;;;;;;10333353;28;20037;-82
2021/05/17 20:14:25;;;;;;;8.57;2.47;;;11.40;99.90;;;;;;10398035;28;20061;-82
2021/05/17 20:19:27;;;;;;;3.38;1.10;;;11.40;99.90;;;;;;10374397;28;20128;-82
2021/05/17 20:24:27;;;;;;;9.55;1.52;;;11.30;99.90;;;;;;10305868;28;21025;-82
2021/05/17 20:29:29;;;;;;;2.60;0.95;;;11.30;99.90;;;;;;10325011;28;20078;-82
2021/05/17 20:39:41;;;;;;;9.25;1.75;;;11.40;99.90;;;;;;10352650;28;20052;-82
2021/05/17 20:44:42;;;;;;;4.50;2.15;;;11.40;99.90;;;;;;10340294;28;20489;-82
2021/05/17 20:49:43;;;;;;;5.82;2.75;;;11.30;99.90;;;;;;10310037;28;20049;-82
2021/05/17 20:54:44;;;;;;;3.08;1.17;;;11.20;99.90;;;;;;10319960;28;20064;-82
2021/05/17 20:59:45;;;;;;;2.33;1.13;;;11.10;99.90;;;;;;10309331;28;20120;-83
2021/05/17 21:04:45;;;;;;;3.47;1.15;;;11.00;99.90;;;;;;10307038;28;20084;-83
2021/05/17 21:09:46;;;;;;;5.82;1.60;;;10.80;99.90;;;;;;10306601;28;20421;-82
2021/05/17 21:14:47;;;;;;;7.80;1.60;;;10.80;99.90;;;;;;10306675;28;20033;-82
2021/05/17 21:19:49;;;;;;;8.52;2.47;;;10.80;99.90;;;;;;10336418;28;20065;-82
2021/05/17 21:24:51;;;;;;;13.45;1.67;;;10.60;99.90;;;;;;10336887;28;20066;-82
2021/05/17 21:29:53;;;;;;;8.18;2.08;;;10.60;99.90;;;;;;10324163;28;20038;-82
2021/05/17 21:34:54;;;;;;;3.50;1.10;;;10.50;99.90;;;;;;10353754;28;20104;-82
2021/05/17 21:39:54;;;;;;;5.15;1.58;;;10.40;99.90;;;;;;10353207;28;20048;-82
2021/05/17 21:44:55;;;;;;;13.27;3.47;;;10.40;99.90;;;;;;10306065;28;20065;-83
2021/05/17 21:49:56;;;;;;;2.90;1.25;;;10.40;99.90;;;;;;10302630;28;20109;-83
2021/05/17 21:54:57;;;;;;;5.45;1.60;;;10.30;99.90;;;;;;10335413;28;20088;-82
2021/05/17 21:59:57;;;;;;;5.10;1.42;;;10.40;99.90;;;;;;10322017;28;20049;-83
2021/05/17 22:04:58;;;;;;;4.07;2.70;;;10.40;99.90;;;;;;10314046;28;20042;-83
2021/05/17 22:10:08;;;;;;;3.67;1.42;;;10.40;99.90;;;;;;10317877;28;20180;-82
2021/05/17 22:15:12;;;;;;;4.45;1.55;;;10.50;99.90;;;;;;10315869;28;20561;-83
2021/05/17 22:20:13;;;;;;;5.63;1.98;;;10.50;99.90;;;;;;10318347;28;20050;-83
2021/05/17 22:25:16;;;;;;;6.57;1.63;;;10.50;99.90;;;;;;10316839;28;20095;-83
2021/05/17 22:30:21;;;;;;;5.57;1.75;;;10.50;99.90;;;;;;10336472;28;20038;-82
2021/05/17 22:35:22;;;;;;;6.88;2.20;;;10.50;99.90;;;;;;10321467;28;20033;-83
2021/05/17 22:40:22;;;;;;;5.28;1.73;;;10.40;99.90;;;;;;10350332;28;20097;-82
2021/05/17 22:45:23;;;;;;;3.97;1.45;;;10.40;99.90;;;;;;10320415;28;20133;-82
2021/05/17 22:50:24;;;;;;;5.45;1.58;;;10.20;99.90;;;;;;10343133;28;20048;-82
2021/05/17 22:55:27;;;;;;;4.03;1.33;;;10.10;99.90;;;;;;10326226;28;20504;-82
2021/05/17 23:00:32;;;;;;;6.28;1.85;;;10.00;99.90;;;;;;10342945;28;20037;-82
2021/05/17 23:05:33;;;;;;;4.15;2.00;;;9.90;99.90;;;;;;10356969;28;20104;-82
2021/05/17 23:10:34;;;;;;;6.75;3.25;;;9.80;99.90;;;;;;10344667;28;20034;-82
2021/05/17 23:15:35;;;;;;;4.95;2.00;;;9.80;99.90;;;;;;10346357;28;20042;-82
2021/05/17 23:31:38;;;;;;;5.75;1.63;;;9.70;99.90;;;;;;10335844;28;20062;-49
2021/05/17 23:36:39;;;;;;;3.40;1.67;;;9.60;99.90;;;;;;10341349;28;20030;-49
2021/05/17 23:41:40;;;;;;;3.55;1.77;;;9.50;99.90;;;;;;10340510;28;20658;-49
2021/05/17 23:46:41;;;;;;;3.38;1.83;;;9.50;99.90;;;;;;10339029;28;20056;-49
2021/05/17 23:51:41;;;;;;;8.68;1.90;;;9.60;99.90;;;;;;10336465;28;20452;-49
2021/05/17 23:56:42;;;;;;;6.28;2.33;;;9.60;99.90;;;;;;10335002;28;20052;-49
